sensor_id;sensor_type;location;lat;lon;timestamp;temperature;humidity
42989;DHT22;28622;43.716;20.668;2023-03-20T00:01:27;6.60;99.90
42989;DHT22;28622;43.716;20.668;2023-03-20T00:03:55;6.60;99.90
42989;DHT22;28622;43.716;20.668;2023-03-20T00:06:23;6.60;99.90
42989;DHT22;28622;43.716;20.668;2023-03-20T00:08:51;6.60;99.90
42989;DHT22;28622;43.716;20.668;2023-03-20T00:13:58;6.40;99.90
42989;DHT22;28622;43.716;20.668;2023-03-20T00:16:29;6.40;99.90
42989;DHT22;28622;43.716;20.668;2023-03-20T00:18:56;6.40;99.90
42989;DHT22;28622;43.716;20.668;2023-03-20T00:21:22;6.30;99.90
42989;DHT22;28622;43.716;20.668;2023-03-20T00:23:48;6.50;99.90
42989;DHT22;28622;43.716;20.668;2023-03-20T00:26:17;6.50;99.90
42989;DHT22;28622;43.716;20.668;2023-03-20T00:28:47;6.50;99.90
42989;DHT22;28622;43.716;20.668;2023-03-20T00:31:33;6.50;99.90
42989;DHT22;28622;43.716;20.668;2023-03-20T00:34:05;6.40;99.90
42989;DHT22;28622;43.716;20.668;2023-03-20T00:36:32;6.50;99.90
42989;DHT22;28622;43.716;20.668;2023-03-20T00:38:58;6.40;99.90
42989;DHT22;28622;43.716;20.668;2023-03-20T00:41:26;6.40;99.90
42989;DHT22;28622;43.716;20.668;2023-03-20T00:43:59;6.40;99.90
42989;DHT22;28622;43.716;20.668;2023-03-20T00:46:28;6.50;99.90
42989;DHT22;28622;43.716;20.668;2023-03-20T00:48:56;6.50;99.90
42989;DHT22;28622;43.716;20.668;2023-03-20T00:51:22;6.40;99.90
42989;DHT22;28622;43.716;20.668;2023-03-20T00:53:48;6.40;99.90
42989;DHT22;28622;43.716;20.668;2023-03-20T00:56:40;6.40;99.90
42989;DHT22;28622;43.716;20.668;2023-03-20T00:59:13;6.20;99.90
42989;DHT22;28622;43.716;20.668;2023-03-20T01:01:40;6.20;99.90
42989;DHT22;28622;43.716;20.668;2023-03-20T01:04:14;6.20;99.90
42989;DHT22;28622;43.716;20.668;2023-03-20T01:06:41;6.20;99.90
42989;DHT22;28622;43.716;20.668;2023-03-20T01:09:06;6.10;99.90
42989;DHT22;28622;43.716;20.668;2023-03-20T01:11:32;6.10;99.90
42989;DHT22;28622;43.716;20.668;2023-03-20T01:13:59;6.10;99.90
42989;DHT22;28622;43.716;20.668;2023-03-20T01:16:25;6.10;99.90
42989;DHT22;28622;43.716;20.668;2023-03-20T01:18:52;6.10;99.90
42989;DHT22;28622;43.716;20.668;2023-03-20T01:21:19;6.00;99.90
42989;DHT22;28622;43.716;20.668;2023-03-20T01:23:46;6.10;99.90
42989;DHT22;28622;43.716;20.668;2023-03-20T01:26:34;6.10;99.90
42989;DHT22;28622;43.716;20.668;2023-03-20T01:29:02;6.10;99.90
42989;DHT22;28622;43.716;20.668;2023-03-20T01:31:27;6.10;99.90
42989;DHT22;28622;43.716;20.668;2023-03-20T01:33:53;6.10;99.90
42989;DHT22;28622;43.716;20.668;2023-03-20T01:36:21;6.10;99.90
42989;DHT22;28622;43.716;20.668;2023-03-20T01:38:55;6.10;99.90
42989;DHT22;28622;43.716;20.668;2023-03-20T01:41:24;6.10;99.90
42989;DHT22;28622;43.716;20.668;2023-03-20T01:43:51;6.10;99.90
42989;DHT22;28622;43.716;20.668;2023-03-20T01:46:29;6.10;99.90
42989;DHT22;28622;43.716;20.668;2023-03-20T01:51:55;6.10;99.90
42989;DHT22;28622;43.716;20.668;2023-03-20T01:54:29;6.10;99.90
42989;DHT22;28622;43.716;20.668;2023-03-20T01:57:11;6.20;99.90
42989;DHT22;28622;43.716;20.668;2023-03-20T01:59:45;6.10;99.90
42989;DHT22;28622;43.716;20.668;2023-03-20T02:02:16;6.00;99.90
42989;DHT22;28622;43.716;20.668;2023-03-20T02:04:47;6.00;99.90
42989;DHT22;28622;43.716;20.668;2023-03-20T02:07:16;6.00;99.90
42989;DHT22;28622;43.716;20.668;2023-03-20T02:09:43;6.00;99.90
42989;DHT22;28622;43.716;20.668;2023-03-20T02:12:09;5.90;99.90
42989;DHT22;28622;43.716;20.668;2023-03-20T02:14:35;5.90;99.90
42989;DHT22;28622;43.716;20.668;2023-03-20T02:17:04;5.80;99.90
42989;DHT22;28622;43.716;20.668;2023-03-20T02:20:21;5.80;99.90
42989;DHT22;28622;43.716;20.668;2023-03-20T02:37:46;5.60;99.90
42989;DHT22;28622;43.716;20.668;2023-03-20T02:49:31;5.50;99.90
42989;DHT22;28622;43.716;20.668;2023-03-20T03:00:07;5.40;99.90
42989;DHT22;28622;43.716;20.668;2023-03-20T03:02:34;5.40;99.90
42989;DHT22;28622;43.716;20.668;2023-03-20T03:05:06;5.50;99.90
42989;DHT22;28622;43.716;20.668;2023-03-20T03:07:34;5.50;99.90
42989;DHT22;28622;43.716;20.668;2023-03-20T03:10:15;5.40;99.90
42989;DHT22;28622;43.716;20.668;2023-03-20T03:12:44;5.40;99.90
42989;DHT22;28622;43.716;20.668;2023-03-20T03:15:35;5.40;99.90
42989;DHT22;28622;43.716;20.668;2023-03-20T03:18:04;5.40;99.90
42989;DHT22;28622;43.716;20.668;2023-03-20T03:23:02;5.30;99.90
42989;DHT22;28622;43.716;20.668;2023-03-20T03:25:33;5.20;99.90
42989;DHT22;28622;43.716;20.668;2023-03-20T03:30:31;5.00;99.90
42989;DHT22;28622;43.716;20.668;2023-03-20T03:35:36;4.90;99.90
42989;DHT22;28622;43.716;20.668;2023-03-20T03:40:51;4.80;99.90
42989;DHT22;28622;43.716;20.668;2023-03-20T03:43:31;4.90;99.90
42989;DHT22;28622;43.716;20.668;2023-03-20T03:46:10;4.80;99.90
42989;DHT22;28622;43.716;20.668;2023-03-20T03:48:44;4.80;99.90
42989;DHT22;28622;43.716;20.668;2023-03-20T03:51:17;4.80;99.90
42989;DHT22;28622;43.716;20.668;2023-03-20T03:53:51;4.80;99.90
42989;DHT22;28622;43.716;20.668;2023-03-20T03:56:22;4.80;99.90
42989;DHT22;28622;43.716;20.668;2023-03-20T03:58:51;4.80;99.90
42989;DHT22;28622;43.716;20.668;2023-03-20T04:01:19;4.80;99.90
42989;DHT22;28622;43.716;20.668;2023-03-20T04:03:49;4.70;99.90
42989;DHT22;28622;43.716;20.668;2023-03-20T04:06:17;4.70;99.90
42989;DHT22;28622;43.716;20.668;2023-03-20T04:08:43;4.70;99.90
42989;DHT22;28622;43.716;20.668;2023-03-20T04:11:21;4.70;99.90
42989;DHT22;28622;43.716;20.668;2023-03-20T04:13:50;4.70;99.90
42989;DHT22;28622;43.716;20.668;2023-03-20T04:16:17;4.70;99.90
42989;DHT22;28622;43.716;20.668;2023-03-20T04:18:44;4.70;99.90
42989;DHT22;28622;43.716;20.668;2023-03-20T04:21:10;4.70;99.90
42989;DHT22;28622;43.716;20.668;2023-03-20T04:23:36;4.70;99.90
42989;DHT22;28622;43.716;20.668;2023-03-20T04:26:03;4.70;99.90
42989;DHT22;28622;43.716;20.668;2023-03-20T04:28:29;4.70;99.90
42989;DHT22;28622;43.716;20.668;2023-03-20T04:30:59;4.60;99.90
42989;DHT22;28622;43.716;20.668;2023-03-20T04:33:26;4.60;99.90
42989;DHT22;28622;43.716;20.668;2023-03-20T04:35:52;4.60;99.90
42989;DHT22;28622;43.716;20.668;2023-03-20T04:38:18;4.60;99.90
42989;DHT22;28622;43.716;20.668;2023-03-20T04:40:45;4.60;99.90
42989;DHT22;28622;43.716;20.668;2023-03-20T04:43:12;4.60;99.90
42989;DHT22;28622;43.716;20.668;2023-03-20T04:45:38;4.70;99.90
42989;DHT22;28622;43.716;20.668;2023-03-20T04:48:04;4.60;99.90
42989;DHT22;28622;43.716;20.668;2023-03-20T04:50:30;4.60;99.90
42989;DHT22;28622;43.716;20.668;2023-03-20T04:52:56;4.60;99.90
42989;DHT22;28622;43.716;20.668;2023-03-20T04:55:22;4.60;99.90
42989;DHT22;28622;43.716;20.668;2023-03-20T04:57:48;4.60;99.90
42989;DHT22;28622;43.716;20.668;2023-03-20T05:00:15;4.60;99.90
42989;DHT22;28622;43.716;20.668;2023-03-20T05:02:41;4.60;99.90
42989;DHT22;28622;43.716;20.668;2023-03-20T05:05:07;4.60;99.90
42989;DHT22;28622;43.716;20.668;2023-03-20T05:07:33;4.60;99.90
42989;DHT22;28622;43.716;20.668;2023-03-20T05:09:59;4.50;99.90
42989;DHT22;28622;43.716;20.668;2023-03-20T05:12:24;4.40;99.90
42989;DHT22;28622;43.716;20.668;2023-03-20T05:14:51;4.40;99.90
42989;DHT22;28622;43.716;20.668;2023-03-20T05:17:20;4.40;99.90
42989;DHT22;28622;43.716;20.668;2023-03-20T05:19:46;4.40;99.90
42989;DHT22;28622;43.716;20.668;2023-03-20T05:22:12;4.40;99.90
42989;DHT22;28622;43.716;20.668;2023-03-20T05:24:38;4.40;99.90
42989;DHT22;28622;43.716;20.668;2023-03-20T05:27:03;4.50;99.90
42989;DHT22;28622;43.716;20.668;2023-03-20T05:29:29;4.40;99.90
42989;DHT22;28622;43.716;20.668;2023-03-20T05:31:56;4.50;99.90
42989;DHT22;28622;43.716;20.668;2023-03-20T05:34:21;4.60;99.90
42989;DHT22;28622;43.716;20.668;2023-03-20T05:36:47;4.60;99.90
42989;DHT22;28622;43.716;20.668;2023-03-20T05:39:13;4.60;99.90
42989;DHT22;28622;43.716;20.668;2023-03-20T05:41:39;4.70;99.90
42989;DHT22;28622;43.716;20.668;2023-03-20T05:44:05;4.80;99.90
42989;DHT22;28622;43.716;20.668;2023-03-20T05:46:30;4.80;99.90
42989;DHT22;28622;43.716;20.668;2023-03-20T05:48:56;4.80;99.90
42989;DHT22;28622;43.716;20.668;2023-03-20T05:51:22;4.90;99.90
42989;DHT22;28622;43.716;20.668;2023-03-20T05:53:47;4.90;99.90
42989;DHT22;28622;43.716;20.668;2023-03-20T05:56:13;5.00;99.90
42989;DHT22;28622;43.716;20.668;2023-03-20T05:58:39;5.20;99.90
42989;DHT22;28622;43.716;20.668;2023-03-20T06:01:05;5.30;99.90
42989;DHT22;28622;43.716;20.668;2023-03-20T06:03:31;5.60;99.90
42989;DHT22;28622;43.716;20.668;2023-03-20T06:05:57;5.80;99.90
42989;DHT22;28622;43.716;20.668;2023-03-20T06:08:23;5.90;99.90
42989;DHT22;28622;43.716;20.668;2023-03-20T06:10:52;6.00;99.90
42989;DHT22;28622;43.716;20.668;2023-03-20T06:13:17;6.10;99.90
42989;DHT22;28622;43.716;20.668;2023-03-20T06:15:43;6.30;99.90
42989;DHT22;28622;43.716;20.668;2023-03-20T06:18:09;6.30;99.90
42989;DHT22;28622;43.716;20.668;2023-03-20T06:20:35;6.50;99.90
42989;DHT22;28622;43.716;20.668;2023-03-20T06:23:00;6.50;99.90
42989;DHT22;28622;43.716;20.668;2023-03-20T06:25:26;6.60;99.90
42989;DHT22;28622;43.716;20.668;2023-03-20T06:27:52;6.70;99.90
42989;DHT22;28622;43.716;20.668;2023-03-20T06:30:18;6.90;99.90
42989;DHT22;28622;43.716;20.668;2023-03-20T06:32:43;7.10;99.90
42989;DHT22;28622;43.716;20.668;2023-03-20T06:35:10;7.10;99.90
42989;DHT22;28622;43.716;20.668;2023-03-20T06:37:36;7.30;99.90
42989;DHT22;28622;43.716;20.668;2023-03-20T06:40:03;7.40;99.90
42989;DHT22;28622;43.716;20.668;2023-03-20T06:42:29;7.50;99.90
42989;DHT22;28622;43.716;20.668;2023-03-20T06:44:55;7.70;99.90
42989;DHT22;28622;43.716;20.668;2023-03-20T06:47:21;7.90;99.90
42989;DHT22;28622;43.716;20.668;2023-03-20T06:49:47;8.10;99.90
42989;DHT22;28622;43.716;20.668;2023-03-20T06:52:18;8.20;99.90
42989;DHT22;28622;43.716;20.668;2023-03-20T06:54:44;8.30;99.90
42989;DHT22;28622;43.716;20.668;2023-03-20T06:57:10;8.50;99.90
42989;DHT22;28622;43.716;20.668;2023-03-20T06:59:36;8.50;99.90
42989;DHT22;28622;43.716;20.668;2023-03-20T07:02:03;8.60;99.90
42989;DHT22;28622;43.716;20.668;2023-03-20T07:04:28;8.80;99.90
42989;DHT22;28622;43.716;20.668;2023-03-20T07:06:54;8.90;99.90
42989;DHT22;28622;43.716;20.668;2023-03-20T07:09:20;9.00;99.90
42989;DHT22;28622;43.716;20.668;2023-03-20T07:11:49;9.10;99.90
42989;DHT22;28622;43.716;20.668;2023-03-20T07:14:15;9.20;99.90
42989;DHT22;28622;43.716;20.668;2023-03-20T07:16:41;9.30;99.90
42989;DHT22;28622;43.716;20.668;2023-03-20T07:19:07;9.50;99.90
42989;DHT22;28622;43.716;20.668;2023-03-20T07:21:33;9.70;99.90
42989;DHT22;28622;43.716;20.668;2023-03-20T07:23:59;10.00;99.90
42989;DHT22;28622;43.716;20.668;2023-03-20T07:26:25;10.40;99.90
42989;DHT22;28622;43.716;20.668;2023-03-20T07:28:51;10.70;99.90
42989;DHT22;28622;43.716;20.668;2023-03-20T07:31:22;10.80;99.90
42989;DHT22;28622;43.716;20.668;2023-03-20T07:33:48;11.00;99.90
42989;DHT22;28622;43.716;20.668;2023-03-20T07:36:14;11.50;99.90
42989;DHT22;28622;43.716;20.668;2023-03-20T07:38:40;11.90;99.90
42989;DHT22;28622;43.716;20.668;2023-03-20T07:41:06;12.20;99.90
42989;DHT22;28622;43.716;20.668;2023-03-20T07:43:32;12.70;99.10
42989;DHT22;28622;43.716;20.668;2023-03-20T07:46:02;13.20;98.40
42989;DHT22;28622;43.716;20.668;2023-03-20T07:48:28;13.60;98.10
42989;DHT22;28622;43.716;20.668;2023-03-20T07:50:53;13.90;96.80
42989;DHT22;28622;43.716;20.668;2023-03-20T07:53:19;14.40;95.20
42989;DHT22;28622;43.716;20.668;2023-03-20T07:55:45;14.50;94.90
42989;DHT22;28622;43.716;20.668;2023-03-20T07:58:11;15.20;93.60
42989;DHT22;28622;43.716;20.668;2023-03-20T08:00:36;15.60;92.20
42989;DHT22;28622;43.716;20.668;2023-03-20T08:03:03;15.60;90.90
42989;DHT22;28622;43.716;20.668;2023-03-20T08:05:29;15.90;90.40
42989;DHT22;28622;43.716;20.668;2023-03-20T08:07:55;15.80;90.00
42989;DHT22;28622;43.716;20.668;2023-03-20T08:10:20;15.90;90.00
42989;DHT22;28622;43.716;20.668;2023-03-20T08:12:46;16.10;89.60
42989;DHT22;28622;43.716;20.668;2023-03-20T08:15:12;16.00;88.90
42989;DHT22;28622;43.716;20.668;2023-03-20T08:17:42;16.30;90.10
42989;DHT22;28622;43.716;20.668;2023-03-20T08:20:09;16.40;88.00
42989;DHT22;28622;43.716;20.668;2023-03-20T08:22:35;16.80;87.10
42989;DHT22;28622;43.716;20.668;2023-03-20T08:25:01;16.80;85.70
42989;DHT22;28622;43.716;20.668;2023-03-20T08:27:27;16.50;84.80
42989;DHT22;28622;43.716;20.668;2023-03-20T08:29:53;16.70;86.20
42989;DHT22;28622;43.716;20.668;2023-03-20T08:32:19;17.40;84.20
42989;DHT22;28622;43.716;20.668;2023-03-20T08:34:44;17.50;85.10
42989;DHT22;28622;43.716;20.668;2023-03-20T08:37:10;17.50;83.10
42989;DHT22;28622;43.716;20.668;2023-03-20T08:39:38;17.80;82.90
42989;DHT22;28622;43.716;20.668;2023-03-20T08:42:05;18.10;82.10
42989;DHT22;28622;43.716;20.668;2023-03-20T08:44:31;18.30;83.90
42989;DHT22;28622;43.716;20.668;2023-03-20T08:46:57;18.40;82.30
42989;DHT22;28622;43.716;20.668;2023-03-20T08:49:23;18.50;83.10
42989;DHT22;28622;43.716;20.668;2023-03-20T08:54:16;18.40;79.50
42989;DHT22;28622;43.716;20.668;2023-03-20T08:56:44;18.40;80.30
42989;DHT22;28622;43.716;20.668;2023-03-20T08:59:10;18.60;78.70
42989;DHT22;28622;43.716;20.668;2023-03-20T09:01:37;18.80;79.30
42989;DHT22;28622;43.716;20.668;2023-03-20T09:04:03;18.90;77.60
42989;DHT22;28622;43.716;20.668;2023-03-20T09:06:29;18.80;77.30
42989;DHT22;28622;43.716;20.668;2023-03-20T09:08:55;19.40;76.60
42989;DHT22;28622;43.716;20.668;2023-03-20T09:11:22;19.60;75.70
42989;DHT22;28622;43.716;20.668;2023-03-20T09:13:48;19.90;75.60
42989;DHT22;28622;43.716;20.668;2023-03-20T09:16:13;20.10;75.50
42989;DHT22;28622;43.716;20.668;2023-03-20T09:18:39;20.50;74.40
42989;DHT22;28622;43.716;20.668;2023-03-20T09:21:05;20.90;73.40
42989;DHT22;28622;43.716;20.668;2023-03-20T09:23:31;21.10;73.00
42989;DHT22;28622;43.716;20.668;2023-03-20T09:25:57;21.30;71.30
42989;DHT22;28622;43.716;20.668;2023-03-20T09:28:23;21.50;70.90
42989;DHT22;28622;43.716;20.668;2023-03-20T09:30:53;22.00;85.30
42989;DHT22;28622;43.716;20.668;2023-03-20T09:33:19;21.90;71.40
42989;DHT22;28622;43.716;20.668;2023-03-20T09:35:45;22.10;68.10
42989;DHT22;28622;43.716;20.668;2023-03-20T09:38:11;22.00;66.50
42989;DHT22;28622;43.716;20.668;2023-03-20T09:40:58;22.00;68.60
42989;DHT22;28622;43.716;20.668;2023-03-20T09:51:56;21.80;65.60
42989;DHT22;28622;43.716;20.668;2023-03-20T09:54:38;22.20;65.60
42989;DHT22;28622;43.716;20.668;2023-03-20T09:57:08;22.10;65.30
42989;DHT22;28622;43.716;20.668;2023-03-20T09:59:38;22.10;65.20
42989;DHT22;28622;43.716;20.668;2023-03-20T10:04:42;22.50;65.10
42989;DHT22;28622;43.716;20.668;2023-03-20T10:07:10;22.50;63.30
42989;DHT22;28622;43.716;20.668;2023-03-20T10:09:37;22.90;64.30
42989;DHT22;28622;43.716;20.668;2023-03-20T10:12:15;23.00;64.00
42989;DHT22;28622;43.716;20.668;2023-03-20T10:17:40;22.80;63.90
42989;DHT22;28622;43.716;20.668;2023-03-20T10:20:24;23.00;63.20
42989;DHT22;28622;43.716;20.668;2023-03-20T10:25:34;23.40;87.50
42989;DHT22;28622;43.716;20.668;2023-03-20T10:28:20;22.90;59.90
42989;DHT22;28622;43.716;20.668;2023-03-20T10:30:59;22.70;63.10
42989;DHT22;28622;43.716;20.668;2023-03-20T10:33:30;23.30;63.60
42989;DHT22;28622;43.716;20.668;2023-03-20T10:41:31;23.90;61.60
42989;DHT22;28622;43.716;20.668;2023-03-20T10:43:59;23.90;62.30
42989;DHT22;28622;43.716;20.668;2023-03-20T10:46:32;23.50;58.10
42989;DHT22;28622;43.716;20.668;2023-03-20T10:49:00;23.40;59.50
42989;DHT22;28622;43.716;20.668;2023-03-20T10:51:39;23.60;60.20
42989;DHT22;28622;43.716;20.668;2023-03-20T10:54:20;23.80;76.00
42989;DHT22;28622;43.716;20.668;2023-03-20T10:56:47;23.90;63.50
42989;DHT22;28622;43.716;20.668;2023-03-20T10:59:21;24.30;60.00
42989;DHT22;28622;43.716;20.668;2023-03-20T11:01:47;24.60;59.50
42989;DHT22;28622;43.716;20.668;2023-03-20T11:06:53;25.30;57.00
42989;DHT22;28622;43.716;20.668;2023-03-20T11:09:23;25.20;58.40
42989;DHT22;28622;43.716;20.668;2023-03-20T11:11:55;25.00;57.30
42989;DHT22;28622;43.716;20.668;2023-03-20T11:14:24;25.10;58.10
42989;DHT22;28622;43.716;20.668;2023-03-20T11:16:52;25.10;57.10
42989;DHT22;28622;43.716;20.668;2023-03-20T11:19:20;25.10;56.00
42989;DHT22;28622;43.716;20.668;2023-03-20T11:21:51;24.80;56.30
42989;DHT22;28622;43.716;20.668;2023-03-20T11:24:45;24.80;56.10
42989;DHT22;28622;43.716;20.668;2023-03-20T11:27:29;24.60;56.40
42989;DHT22;28622;43.716;20.668;2023-03-20T11:29:56;24.70;57.30
42989;DHT22;28622;43.716;20.668;2023-03-20T11:35:08;24.70;54.50
42989;DHT22;28622;43.716;20.668;2023-03-20T11:37:35;25.00;55.90
42989;DHT22;28622;43.716;20.668;2023-03-20T11:40:33;25.10;53.50
42989;DHT22;28622;43.716;20.668;2023-03-20T11:45:25;25.40;54.30
42989;DHT22;28622;43.716;20.668;2023-03-20T11:47:54;25.30;52.40
42989;DHT22;28622;43.716;20.668;2023-03-20T11:52:59;25.60;52.60
42989;DHT22;28622;43.716;20.668;2023-03-20T11:55:32;25.30;52.30
42989;DHT22;28622;43.716;20.668;2023-03-20T11:58:00;25.60;52.80
42989;DHT22;28622;43.716;20.668;2023-03-20T12:00:35;25.40;51.90
42989;DHT22;28622;43.716;20.668;2023-03-20T12:03:02;24.60;51.20
42989;DHT22;28622;43.716;20.668;2023-03-20T12:05:29;24.80;52.70
42989;DHT22;28622;43.716;20.668;2023-03-20T12:08:10;24.90;53.70
42989;DHT22;28622;43.716;20.668;2023-03-20T12:10:41;25.20;53.40
42989;DHT22;28622;43.716;20.668;2023-03-20T12:13:15;25.30;53.70
42989;DHT22;28622;43.716;20.668;2023-03-20T12:15:48;25.20;54.40
42989;DHT22;28622;43.716;20.668;2023-03-20T12:18:39;25.30;52.40
42989;DHT22;28622;43.716;20.668;2023-03-20T12:26:16;25.30;52.50
42989;DHT22;28622;43.716;20.668;2023-03-20T12:34:14;25.50;76.90
42989;DHT22;28622;43.716;20.668;2023-03-20T12:36:43;25.00;52.20
42989;DHT22;28622;43.716;20.668;2023-03-20T12:39:30;25.10;52.80
42989;DHT22;28622;43.716;20.668;2023-03-20T12:42:24;25.10;52.20
42989;DHT22;28622;43.716;20.668;2023-03-20T12:44:57;25.00;52.30
42989;DHT22;28622;43.716;20.668;2023-03-20T12:50:25;25.00;53.70
42989;DHT22;28622;43.716;20.668;2023-03-20T12:55:57;24.80;54.50
42989;DHT22;28622;43.716;20.668;2023-03-20T12:58:46;24.50;55.10
42989;DHT22;28622;43.716;20.668;2023-03-20T13:01:27;24.30;56.00
42989;DHT22;28622;43.716;20.668;2023-03-20T13:09:37;24.60;55.60
42989;DHT22;28622;43.716;20.668;2023-03-20T13:15:25;24.80;56.50
42989;DHT22;28622;43.716;20.668;2023-03-20T13:20:42;24.30;55.20
42989;DHT22;28622;43.716;20.668;2023-03-20T13:23:45;24.20;56.30
42989;DHT22;28622;43.716;20.668;2023-03-20T13:29:10;23.90;56.70
42989;DHT22;28622;43.716;20.668;2023-03-20T13:31:50;23.90;57.30
42989;DHT22;28622;43.716;20.668;2023-03-20T13:37:26;23.80;57.70
42989;DHT22;28622;43.716;20.668;2023-03-20T13:45:41;23.40;58.60
42989;DHT22;28622;43.716;20.668;2023-03-20T13:48:33;23.10;57.40
42989;DHT22;28622;43.716;20.668;2023-03-20T13:57:09;23.00;57.30
42989;DHT22;28622;43.716;20.668;2023-03-20T13:59:49;22.90;70.80
42989;DHT22;28622;43.716;20.668;2023-03-20T14:07:46;22.20;60.50
42989;DHT22;28622;43.716;20.668;2023-03-20T14:13:00;22.10;59.70
42989;DHT22;28622;43.716;20.668;2023-03-20T14:15:31;22.20;58.50
42989;DHT22;28622;43.716;20.668;2023-03-20T14:18:06;22.10;59.00
42989;DHT22;28622;43.716;20.668;2023-03-20T14:20:39;22.10;58.70
42989;DHT22;28622;43.716;20.668;2023-03-20T14:23:14;22.00;58.50
42989;DHT22;28622;43.716;20.668;2023-03-20T14:25:42;21.80;58.80
42989;DHT22;28622;43.716;20.668;2023-03-20T14:30:44;21.50;60.40
42989;DHT22;28622;43.716;20.668;2023-03-20T14:35:51;21.20;60.80
42989;DHT22;28622;43.716;20.668;2023-03-20T14:41:21;21.10;61.20
42989;DHT22;28622;43.716;20.668;2023-03-20T14:57:43;20.80;60.80
42989;DHT22;28622;43.716;20.668;2023-03-20T15:02:48;20.80;60.80
42989;DHT22;28622;43.716;20.668;2023-03-20T15:05:26;20.90;61.10
42989;DHT22;28622;43.716;20.668;2023-03-20T15:07:55;20.90;61.00
42989;DHT22;28622;43.716;20.668;2023-03-20T15:10:23;21.00;60.90
42989;DHT22;28622;43.716;20.668;2023-03-20T15:12:50;21.00;60.40
42989;DHT22;28622;43.716;20.668;2023-03-20T15:15:26;21.00;60.60
42989;DHT22;28622;43.716;20.668;2023-03-20T15:17:52;21.00;60.50
42989;DHT22;28622;43.716;20.668;2023-03-20T15:20:20;21.10;60.50
42989;DHT22;28622;43.716;20.668;2023-03-20T15:22:54;21.10;59.90
42989;DHT22;28622;43.716;20.668;2023-03-20T15:25:23;21.00;59.80
42989;DHT22;28622;43.716;20.668;2023-03-20T15:27:49;21.00;60.30
42989;DHT22;28622;43.716;20.668;2023-03-20T15:30:18;21.00;60.30
42989;DHT22;28622;43.716;20.668;2023-03-20T15:32:46;21.00;60.50
42989;DHT22;28622;43.716;20.668;2023-03-20T15:35:16;21.00;61.20
42989;DHT22;28622;43.716;20.668;2023-03-20T15:37:46;21.00;61.10
42989;DHT22;28622;43.716;20.668;2023-03-20T15:40:30;20.90;60.80
42989;DHT22;28622;43.716;20.668;2023-03-20T15:45:39;20.70;61.30
42989;DHT22;28622;43.716;20.668;2023-03-20T15:48:18;20.70;61.50
42989;DHT22;28622;43.716;20.668;2023-03-20T15:51:04;20.60;61.30
42989;DHT22;28622;43.716;20.668;2023-03-20T15:53:35;20.50;61.70
42989;DHT22;28622;43.716;20.668;2023-03-20T15:56:12;20.50;62.10
42989;DHT22;28622;43.716;20.668;2023-03-20T15:58:40;20.40;62.20
42989;DHT22;28622;43.716;20.668;2023-03-20T16:01:08;20.30;62.70
42989;DHT22;28622;43.716;20.668;2023-03-20T16:03:35;20.20;63.00
42989;DHT22;28622;43.716;20.668;2023-03-20T16:06:06;20.10;63.30
42989;DHT22;28622;43.716;20.668;2023-03-20T16:08:33;20.00;64.10
42989;DHT22;28622;43.716;20.668;2023-03-20T16:11:08;19.90;64.50
42989;DHT22;28622;43.716;20.668;2023-03-20T16:13:45;19.90;64.60
42989;DHT22;28622;43.716;20.668;2023-03-20T16:16:21;19.70;65.00
42989;DHT22;28622;43.716;20.668;2023-03-20T16:18:48;19.60;65.40
42989;DHT22;28622;43.716;20.668;2023-03-20T16:21:21;19.50;65.60
42989;DHT22;28622;43.716;20.668;2023-03-20T16:23:51;19.40;66.10
42989;DHT22;28622;43.716;20.668;2023-03-20T16:26:20;19.30;65.90
42989;DHT22;28622;43.716;20.668;2023-03-20T16:28:54;19.20;67.50
42989;DHT22;28622;43.716;20.668;2023-03-20T16:31:29;19.10;66.70
42989;DHT22;28622;43.716;20.668;2023-03-20T16:34:05;19.00;67.10
42989;DHT22;28622;43.716;20.668;2023-03-20T16:36:36;18.90;68.20
42989;DHT22;28622;43.716;20.668;2023-03-20T16:39:17;18.80;67.70
42989;DHT22;28622;43.716;20.668;2023-03-20T16:41:45;18.80;68.30
42989;DHT22;28622;43.716;20.668;2023-03-20T16:44:16;18.70;68.00
42989;DHT22;28622;43.716;20.668;2023-03-20T16:51:57;18.50;68.80
42989;DHT22;28622;43.716;20.668;2023-03-20T16:54:26;18.40;68.60
42989;DHT22;28622;43.716;20.668;2023-03-20T16:56:54;18.40;68.80
42989;DHT22;28622;43.716;20.668;2023-03-20T16:59:21;18.40;69.80
42989;DHT22;28622;43.716;20.668;2023-03-20T17:01:49;18.30;69.30
42989;DHT22;28622;43.716;20.668;2023-03-20T17:04:27;18.30;69.50
42989;DHT22;28622;43.716;20.668;2023-03-20T17:06:54;18.50;70.70
42989;DHT22;28622;43.716;20.668;2023-03-20T17:09:29;18.20;69.90
42989;DHT22;28622;43.716;20.668;2023-03-20T17:12:26;18.20;70.10
42989;DHT22;28622;43.716;20.668;2023-03-20T17:14:52;18.10;70.10
42989;DHT22;28622;43.716;20.668;2023-03-20T17:17:21;18.10;70.30
42989;DHT22;28622;43.716;20.668;2023-03-20T17:19:50;18.00;70.00
42989;DHT22;28622;43.716;20.668;2023-03-20T17:22:22;18.00;70.10
42989;DHT22;28622;43.716;20.668;2023-03-20T17:24:49;17.90;70.90
42989;DHT22;28622;43.716;20.668;2023-03-20T17:27:15;17.80;71.10
42989;DHT22;28622;43.716;20.668;2023-03-20T17:29:43;17.80;71.30
42989;DHT22;28622;43.716;20.668;2023-03-20T17:32:19;17.70;72.30
42989;DHT22;28622;43.716;20.668;2023-03-20T17:34:48;17.70;71.90
42989;DHT22;28622;43.716;20.668;2023-03-20T17:37:21;17.70;71.30
42989;DHT22;28622;43.716;20.668;2023-03-20T17:39:47;17.60;72.50
42989;DHT22;28622;43.716;20.668;2023-03-20T17:42:24;17.50;73.50
42989;DHT22;28622;43.716;20.668;2023-03-20T17:44:51;17.40;73.60
42989;DHT22;28622;43.716;20.668;2023-03-20T17:47:20;17.30;74.40
42989;DHT22;28622;43.716;20.668;2023-03-20T17:49:47;17.10;76.90
42989;DHT22;28622;43.716;20.668;2023-03-20T17:52:15;17.00;77.60
42989;DHT22;28622;43.716;20.668;2023-03-20T17:54:44;16.80;77.90
42989;DHT22;28622;43.716;20.668;2023-03-20T17:57:33;16.80;78.10
42989;DHT22;28622;43.716;20.668;2023-03-20T18:00:01;16.70;78.20
42989;DHT22;28622;43.716;20.668;2023-03-20T18:02:27;16.60;78.50
42989;DHT22;28622;43.716;20.668;2023-03-20T18:04:53;16.70;77.60
42989;DHT22;28622;43.716;20.668;2023-03-20T18:07:19;16.60;77.60
42989;DHT22;28622;43.716;20.668;2023-03-20T18:09:45;16.60;78.10
42989;DHT22;28622;43.716;20.668;2023-03-20T18:12:15;16.60;78.70
42989;DHT22;28622;43.716;20.668;2023-03-20T18:14:42;16.50;78.90
42989;DHT22;28622;43.716;20.668;2023-03-20T18:17:11;16.40;79.30
42989;DHT22;28622;43.716;20.668;2023-03-20T18:19:37;16.30;79.50
42989;DHT22;28622;43.716;20.668;2023-03-20T18:22:03;16.30;79.70
42989;DHT22;28622;43.716;20.668;2023-03-20T18:24:29;16.30;80.00
42989;DHT22;28622;43.716;20.668;2023-03-20T18:26:55;16.20;80.30
42989;DHT22;28622;43.716;20.668;2023-03-20T18:29:21;16.20;80.20